createdAt,value
2018-05-25T00:01:43.283Z,96.95
2018-05-25T00:04:11.538Z,96.56
2018-05-25T00:06:40.571Z,96.31
2018-05-25T00:09:08.886Z,95.98
2018-05-25T00:11:37.141Z,95.98
2018-05-25T00:14:05.420Z,95.54
2018-05-25T00:16:33.671Z,95.39
2018-05-25T00:19:01.930Z,95.07
2018-05-25T00:21:30.217Z,94.89
2018-05-25T00:23:58.451Z,94.73
2018-05-25T00:26:26.717Z,95.23
2018-05-25T00:28:54.982Z,95.80
2018-05-25T00:31:23.232Z,96.00
2018-05-25T00:33:51.499Z,95.97
2018-05-25T00:36:19.772Z,96.16
2018-05-25T00:38:48.045Z,96.42
2018-05-25T00:41:16.304Z,96.10
2018-05-25T00:43:44.556Z,95.93
2018-05-25T00:46:12.822Z,95.68
2018-05-25T00:48:41.074Z,95.49
2018-05-25T00:51:09.357Z,96.08
2018-05-25T00:53:37.608Z,96.08
2018-05-25T00:56:05.865Z,96.02
2018-05-25T00:58:34.155Z,96.16
2018-05-25T01:01:02.430Z,96.00
2018-05-25T01:03:30.716Z,96.46
2018-05-25T01:05:58.972Z,96.53
2018-05-25T01:08:27.224Z,96.69
2018-05-25T01:10:56.266Z,96.35
2018-05-25T01:13:24.530Z,96.11
2018-05-25T01:15:52.905Z,96.24
2018-05-25T01:18:21.156Z,96.92
2018-05-25T01:20:50.177Z,97.01
2018-05-25T01:23:18.472Z,96.79
2018-05-25T01:25:46.729Z,96.74
2018-05-25T01:28:14.994Z,96.38
2018-05-25T01:30:43.260Z,96.96
2018-05-25T01:33:12.277Z,96.88
2018-05-25T01:35:40.545Z,96.50
2018-05-25T01:38:08.806Z,96.35
2018-05-25T01:40:37.924Z,96.64
2018-05-25T01:43:06.209Z,96.84
2018-05-25T01:45:34.473Z,96.94
2018-05-25T01:48:02.853Z,96.50
2018-05-25T01:50:31.112Z,96.93
2018-05-25T01:52:59.396Z,96.43
2018-05-25T01:55:27.667Z,96.60
2018-05-25T01:57:55.922Z,96.96
2018-05-25T02:00:24.950Z,97.16
2018-05-25T02:02:53.210Z,97.13
2018-05-25T02:05:21.485Z,97.00
2018-05-25T02:07:50.500Z,96.77
2018-05-25T02:10:18.762Z,96.81
2018-05-25T02:12:47.045Z,96.35
2018-05-25T02:15:15.293Z,96.27
2018-05-25T02:17:44.409Z,97.82
2018-05-25T02:20:12.697Z,98.29
2018-05-25T02:22:40.959Z,98.32
2018-05-25T02:25:09.988Z,97.96
2018-05-25T02:27:38.249Z,98.22
2018-05-25T02:30:06.573Z,97.74
2018-05-25T02:32:34.824Z,97.23
2018-05-25T02:35:03.094Z,96.94
2018-05-25T02:37:31.375Z,96.58
2018-05-25T02:39:59.631Z,96.83
2018-05-25T02:42:27.902Z,96.36
2018-05-25T02:44:56.164Z,96.19
2018-05-25T02:47:24.449Z,96.02
2018-05-25T02:49:52.733Z,95.71
2018-05-25T02:52:20.999Z,95.86
2018-05-25T02:54:49.276Z,96.47
2018-05-25T02:57:17.593Z,97.01
2018-05-25T02:59:45.840Z,97.14
2018-05-25T03:02:14.090Z,97.09
2018-05-25T03:04:42.380Z,96.95
2018-05-25T03:07:10.649Z,96.58
2018-05-25T03:09:38.913Z,96.00
2018-05-25T03:12:07.948Z,95.63
2018-05-25T03:14:36.224Z,95.86
2018-05-25T03:17:04.584Z,95.89
2018-05-25T03:19:32.857Z,95.97
2018-05-25T03:22:01.113Z,96.03
2018-05-25T03:24:30.235Z,95.80
2018-05-25T03:26:58.505Z,96.03
2018-05-25T03:29:26.805Z,96.05
2018-05-25T03:31:55.110Z,96.02
2018-05-25T03:34:23.454Z,96.59
2018-05-25T03:36:51.716Z,96.58
2018-05-25T03:39:20.002Z,96.47
2018-05-25T03:41:48.274Z,96.27
2018-05-25T03:44:16.540Z,96.30
2018-05-25T03:46:44.824Z,96.11
2018-05-25T03:49:13.081Z,96.07
2018-05-25T03:51:43.021Z,96.04
2018-05-25T03:54:11.271Z,95.98
2018-05-25T03:56:39.542Z,95.51
2018-05-25T03:59:26.245Z,95.40
2018-05-25T04:02:01.433Z,95.40
2018-05-25T04:04:29.801Z,95.40
2018-05-25T04:06:58.069Z,95.20
2018-05-25T04:09:27.185Z,94.89
2018-05-25T04:11:55.433Z,94.99
2018-05-25T04:14:23.723Z,94.51
2018-05-25T04:16:51.991Z,94.44
2018-05-25T04:19:20.277Z,94.30
2018-05-25T04:21:48.546Z,94.20
2018-05-25T04:24:16.828Z,94.21
2018-05-25T04:26:45.085Z,94.23
2018-05-25T04:29:13.368Z,94.22
2018-05-25T04:31:41.649Z,94.26
2018-05-25T04:34:09.926Z,94.54
2018-05-25T04:36:38.173Z,96.09
2018-05-25T04:39:07.204Z,95.45
2018-05-25T04:41:35.453Z,95.10
2018-05-25T04:44:05.279Z,94.89
2018-05-25T04:46:33.541Z,94.60
2018-05-25T04:49:02.572Z,94.58
2018-05-25T04:51:30.841Z,94.19
2018-05-25T04:53:59.093Z,93.97
2018-05-25T04:56:27.344Z,93.67
2018-05-25T04:58:56.915Z,93.28
2018-05-25T05:01:25.157Z,93.01
2018-05-25T05:03:53.424Z,92.75
2018-05-25T05:06:22.441Z,92.28
2018-05-25T05:08:50.692Z,91.98
2018-05-25T05:11:19.720Z,91.88
2018-05-25T05:13:47.981Z,91.62
2018-05-25T05:16:16.366Z,91.47
2018-05-25T05:18:44.622Z,90.88
2018-05-25T05:21:13.742Z,91.20
2018-05-25T05:23:42.098Z,91.42
2018-05-25T05:26:10.403Z,91.97
2018-05-25T05:28:38.662Z,91.78
2018-05-25T05:31:06.921Z,91.65
2018-05-25T05:33:35.969Z,91.04
2018-05-25T05:36:04.244Z,90.44
2018-05-25T05:38:32.492Z,90.98
2018-05-25T05:41:00.762Z,90.42
2018-05-25T05:43:32.025Z,89.60
2018-05-25T05:46:00.292Z,88.66
2018-05-25T05:48:28.544Z,89.32
2018-05-25T05:50:57.566Z,88.69
2018-05-25T05:53:25.837Z,89.36
2018-05-25T05:55:54.086Z,88.78
2018-05-25T05:58:23.128Z,88.82
2018-05-25T06:00:51.377Z,88.05
2018-05-25T06:03:19.637Z,87.45
2018-05-25T06:05:47.910Z,87.23
2018-05-25T06:08:16.932Z,87.25
2018-05-25T06:10:45.189Z,87.80
2018-05-25T06:13:13.440Z,88.53
2018-05-25T06:15:42.476Z,89.51
2018-05-25T06:18:10.745Z,89.01
2018-05-25T06:20:39.021Z,88.15
2018-05-25T06:23:07.281Z,89.06
2018-05-25T06:25:35.540Z,88.40
2018-05-25T06:28:04.565Z,87.83
2018-05-25T06:30:32.839Z,89.91
2018-05-25T06:33:01.089Z,87.42
2018-05-25T06:35:30.128Z,89.14
2018-05-25T06:37:58.379Z,89.36
2018-05-25T06:40:26.640Z,89.05
2018-05-25T06:42:55.674Z,88.48
2018-05-25T06:45:23.922Z,88.46
2018-05-25T06:47:52.196Z,88.65
2018-05-25T06:50:20.451Z,88.90
2018-05-25T06:52:49.474Z,87.71
2018-05-25T06:55:17.753Z,87.02
2018-05-25T06:57:45.995Z,87.18
2018-05-25T07:00:15.034Z,85.33
2018-05-25T07:02:43.286Z,85.59
2018-05-25T07:05:11.549Z,84.23
2018-05-25T07:07:40.576Z,83.98
2018-05-25T07:10:08.836Z,85.77
2018-05-25T07:12:37.102Z,85.80
2018-05-25T07:15:06.146Z,85.99
2018-05-25T07:17:34.386Z,85.37
2018-05-25T07:20:02.656Z,85.47
2018-05-25T07:22:30.913Z,84.36
2018-05-25T07:24:59.949Z,84.17
2018-05-25T07:27:28.204Z,83.65
2018-05-25T07:29:56.485Z,83.17
2018-05-25T07:32:24.749Z,83.49
2018-05-25T07:34:53.778Z,82.70
2018-05-25T07:37:22.046Z,83.09
2018-05-25T07:39:50.289Z,82.01
2018-05-25T07:42:19.317Z,81.59
2018-05-25T07:44:47.564Z,80.45
2018-05-25T07:47:16.596Z,80.41
2018-05-25T07:49:44.866Z,81.17
2018-05-25T07:52:13.120Z,80.83
2018-05-25T07:54:41.396Z,82.38
2018-05-25T07:57:09.669Z,83.40
2018-05-25T07:59:37.929Z,83.17
2018-05-25T08:02:06.953Z,83.26
2018-05-25T08:04:35.204Z,83.79
2018-05-25T08:07:04.234Z,83.69
2018-05-25T08:09:32.493Z,84.38
2018-05-25T08:12:00.803Z,83.63
2018-05-25T08:14:29.055Z,83.10
2018-05-25T08:16:57.315Z,83.06
2018-05-25T08:19:26.417Z,83.23
2018-05-25T08:21:54.742Z,83.04
2018-05-25T08:24:22.972Z,86.21
2018-05-25T08:26:51.346Z,85.92
2018-05-25T08:29:19.645Z,87.43
2018-05-25T08:31:47.912Z,86.91
2018-05-25T08:34:16.187Z,86.00
2018-05-25T08:36:44.437Z,84.73
2018-05-25T08:39:13.559Z,85.17
2018-05-25T08:41:41.825Z,84.98
2018-05-25T08:44:10.104Z,83.31
2018-05-25T08:46:38.389Z,82.53
2018-05-25T08:49:06.658Z,80.58
2018-05-25T08:51:34.909Z,80.92
2018-05-25T08:54:03.930Z,81.00
2018-05-25T08:56:33.168Z,79.61
2018-05-25T08:59:01.494Z,80.30
2018-05-25T09:01:29.694Z,79.49
2018-05-25T09:03:57.953Z,79.44
2018-05-25T09:06:26.256Z,78.10
2018-05-25T09:08:54.510Z,77.39
2018-05-25T09:11:22.798Z,77.10
2018-05-25T09:13:51.051Z,77.54
2018-05-25T09:16:19.316Z,76.85
2018-05-25T09:18:48.429Z,77.84
2018-05-25T09:21:16.685Z,76.72
2018-05-25T09:23:45.792Z,75.54
2018-05-25T09:26:14.056Z,75.00
2018-05-25T09:28:43.182Z,77.41
2018-05-25T09:31:11.548Z,78.31
2018-05-25T09:33:39.828Z,78.01
2018-05-25T09:36:08.129Z,77.66
2018-05-25T09:38:36.378Z,75.44
2018-05-25T09:41:04.639Z,77.84
2018-05-25T09:43:33.678Z,76.79
2018-05-25T09:46:02.036Z,75.39
2018-05-25T09:48:30.298Z,77.18
2018-05-25T09:50:58.552Z,73.84
2018-05-25T09:53:27.669Z,72.75
2018-05-25T09:55:55.970Z,73.70
2018-05-25T09:58:24.246Z,73.52
2018-05-25T10:00:52.509Z,71.98
2018-05-25T10:03:20.760Z,72.71
2018-05-25T10:05:49.801Z,71.68
2018-05-25T10:08:18.050Z,70.71
2018-05-25T10:10:46.332Z,70.46
2018-05-25T10:13:14.592Z,69.07
2018-05-25T10:15:42.848Z,71.27
2018-05-25T10:18:11.877Z,72.28
2018-05-25T10:20:40.138Z,70.61
2018-05-25T10:23:08.393Z,69.53
2018-05-25T10:25:37.524Z,69.05
2018-05-25T10:28:05.775Z,66.75
2018-05-25T10:30:34.076Z,67.27
2018-05-25T10:33:02.344Z,67.97
2018-05-25T10:35:30.606Z,65.33
2018-05-25T10:37:59.637Z,65.60
2018-05-25T10:40:27.991Z,64.07
2018-05-25T10:42:56.286Z,68.50
2018-05-25T10:45:24.550Z,65.24
2018-05-25T10:47:52.837Z,65.61
2018-05-25T10:50:21.089Z,63.59
2018-05-25T10:52:50.117Z,66.60
2018-05-25T10:55:18.470Z,67.11
2018-05-25T10:57:46.760Z,67.11
2018-05-25T11:00:15.012Z,65.57
2018-05-25T11:02:44.045Z,65.06
2018-05-25T11:05:12.319Z,63.74
2018-05-25T11:07:40.679Z,66.69
2018-05-25T11:10:08.938Z,65.72
2018-05-25T11:12:37.977Z,67.03
2018-05-25T11:15:06.252Z,66.39
2018-05-25T11:17:34.508Z,62.87
2018-05-25T11:20:02.883Z,65.36
2018-05-25T11:22:31.137Z,62.21
2018-05-25T11:25:00.254Z,61.66
2018-05-25T11:27:28.537Z,62.26
2018-05-25T11:29:57.795Z,63.38
2018-05-25T11:32:26.832Z,62.50
2018-05-25T11:34:55.101Z,62.66
2018-05-25T11:37:23.344Z,61.53
2018-05-25T11:39:52.468Z,59.60
2018-05-25T11:42:20.717Z,61.15
2018-05-25T11:44:49.846Z,60.61
2018-05-25T11:47:18.093Z,59.52
2018-05-25T11:49:47.116Z,58.50
2018-05-25T11:52:15.391Z,57.83
2018-05-25T11:54:43.628Z,58.66
2018-05-25T11:57:12.664Z,56.90
2018-05-25T11:59:40.921Z,53.67
2018-05-25T12:02:09.170Z,53.34
2018-05-25T12:04:37.484Z,56.83
2018-05-25T12:07:05.756Z,56.54
2018-05-25T12:09:34.030Z,56.89
2018-05-25T12:12:02.296Z,57.93
2018-05-25T12:14:31.326Z,55.53
2018-05-25T12:16:59.604Z,56.00
2018-05-25T12:19:27.857Z,55.10
2018-05-25T12:21:56.116Z,55.24
2018-05-25T12:24:25.189Z,56.99
2018-05-25T12:26:53.437Z,57.66
2018-05-25T12:29:21.811Z,58.04
2018-05-25T12:31:50.079Z,60.53
2018-05-25T12:34:18.343Z,59.30
2018-05-25T12:36:46.604Z,60.22
2018-05-25T12:39:14.883Z,58.58
2018-05-25T12:41:43.130Z,59.26
2018-05-25T12:44:11.438Z,59.05
2018-05-25T12:46:39.737Z,59.90
2018-05-25T12:49:07.985Z,59.27
2018-05-25T12:51:36.237Z,59.51
2018-05-25T12:54:05.285Z,57.90
2018-05-25T12:56:33.537Z,58.32
2018-05-25T12:59:01.800Z,58.19
2018-05-25T13:01:30.093Z,59.02
2018-05-25T13:03:58.370Z,59.69
2018-05-25T13:06:26.636Z,60.88
2018-05-25T13:08:54.904Z,57.32
2018-05-25T13:11:23.969Z,55.63
2018-05-25T13:13:52.285Z,54.73
2018-05-25T13:16:20.573Z,54.54
2018-05-25T13:18:48.861Z,56.23
2018-05-25T13:21:17.108Z,55.90
2018-05-25T13:23:45.505Z,57.23
2018-05-25T13:26:13.785Z,55.40
2018-05-25T13:28:42.036Z,55.70
2018-05-25T13:31:11.096Z,55.01
2018-05-25T13:33:39.431Z,55.59
2018-05-25T13:36:07.692Z,54.51
2018-05-25T13:38:35.969Z,53.34
2018-05-25T13:41:05.068Z,52.59
2018-05-25T13:43:33.324Z,49.96
2018-05-25T13:46:02.366Z,48.59
2018-05-25T13:48:30.629Z,44.49
2018-05-25T13:50:58.889Z,46.99
2018-05-25T13:53:27.158Z,47.14
2018-05-25T13:55:56.217Z,45.88
2018-05-25T13:58:24.492Z,45.15
2018-05-25T14:00:52.774Z,44.28
2018-05-25T14:03:21.048Z,44.22
2018-05-25T14:05:49.319Z,47.24
2018-05-25T14:08:17.576Z,47.06
2018-05-25T14:10:45.861Z,49.36
2018-05-25T14:13:14.125Z,50.95
2018-05-25T14:15:42.424Z,51.44
2018-05-25T14:18:10.676Z,52.12
2018-05-25T14:20:38.942Z,53.08
2018-05-25T14:23:07.212Z,54.77
2018-05-25T14:25:35.464Z,54.79
2018-05-25T14:28:04.515Z,55.41
2018-05-25T14:30:32.773Z,55.76
2018-05-25T14:33:01.065Z,56.25
2018-05-25T14:35:29.374Z,54.83
2018-05-25T14:37:58.389Z,51.76
2018-05-25T14:40:26.653Z,50.16
2018-05-25T14:42:55.882Z,50.04
2018-05-25T14:45:24.149Z,49.51
2018-05-25T14:47:52.499Z,51.06
2018-05-25T14:50:21.549Z,51.08
2018-05-25T14:52:49.839Z,50.65
2018-05-25T14:55:18.093Z,49.54
2018-05-25T14:57:46.356Z,49.43
2018-05-25T15:00:14.634Z,49.62
2018-05-25T15:02:42.895Z,50.27
2018-05-25T15:05:11.164Z,50.24
2018-05-25T15:07:39.424Z,48.64
2018-05-25T15:10:08.448Z,46.99
2018-05-25T15:12:36.722Z,44.68
2018-05-25T15:15:08.043Z,42.94
2018-05-25T15:17:36.309Z,43.00
2018-05-25T15:20:04.580Z,44.50
2018-05-25T15:22:32.858Z,43.05
2018-05-25T15:25:01.162Z,42.23
2018-05-25T15:27:30.202Z,43.68
2018-05-25T15:29:58.515Z,42.24
2018-05-25T15:32:26.765Z,38.75
2018-05-25T15:34:55.013Z,39.31
2018-05-25T15:37:23.302Z,39.04
2018-05-25T15:39:51.601Z,40.01
2018-05-25T15:42:19.865Z,37.44
2018-05-25T15:44:48.129Z,36.81
2018-05-25T15:47:16.410Z,37.00
2018-05-25T15:49:44.696Z,37.25
2018-05-25T15:52:12.984Z,35.24
2018-05-25T15:54:41.256Z,34.83
2018-05-25T15:57:09.492Z,36.64
2018-05-25T15:59:37.745Z,37.58
2018-05-25T16:02:06.780Z,37.09
2018-05-25T16:04:35.052Z,37.47
2018-05-25T16:07:03.317Z,37.53
2018-05-25T16:09:31.640Z,36.46
2018-05-25T16:11:59.892Z,36.61
2018-05-25T16:14:28.157Z,35.62
2018-05-25T16:16:56.413Z,35.31
2018-05-25T16:19:24.710Z,34.28
2018-05-25T16:21:52.960Z,34.82
2018-05-25T16:24:21.237Z,35.21
2018-05-25T16:26:49.500Z,34.49
2018-05-25T16:29:18.520Z,35.14
2018-05-25T16:31:46.782Z,33.45
2018-05-25T16:34:15.086Z,34.24
2018-05-25T16:36:44.056Z,34.22
2018-05-25T16:39:12.344Z,33.40
2018-05-25T16:41:40.642Z,32.88
2018-05-25T16:44:08.918Z,34.10
2018-05-25T16:46:37.388Z,34.89
2018-05-25T16:49:05.632Z,36.76
2018-05-25T16:51:34.665Z,38.57
2018-05-25T16:54:02.934Z,41.19
2018-05-25T16:56:31.204Z,41.84
2018-05-25T16:58:59.449Z,43.36
2018-05-25T17:01:28.481Z,45.46
2018-05-25T17:03:56.744Z,46.89
2018-05-25T17:06:25.012Z,47.40
2018-05-25T17:08:54.281Z,47.38
2018-05-25T17:11:22.549Z,49.97
2018-05-25T17:13:50.865Z,57.99
2018-05-25T17:16:19.133Z,63.74
2018-05-25T17:18:47.388Z,66.62
2018-05-25T17:21:16.429Z,68.33
2018-05-25T17:23:44.674Z,71.90
2018-05-25T17:26:13.698Z,73.75
2018-05-25T17:28:42.021Z,73.70
2018-05-25T17:31:11.408Z,75.38
2018-05-25T17:33:39.746Z,80.21
2018-05-25T17:36:08.074Z,82.12
2018-05-25T17:38:36.276Z,83.14
2018-05-25T17:41:05.308Z,84.46
2018-05-25T17:43:33.575Z,86.80
2018-05-25T17:46:01.851Z,88.24
2018-05-25T17:48:30.147Z,88.73
2018-05-25T17:50:59.177Z,88.70
2018-05-25T17:53:28.241Z,89.33
2018-05-25T17:55:56.516Z,88.96
2018-05-25T17:58:24.857Z,89.71
2018-05-25T18:00:53.244Z,88.86
2018-05-25T18:03:21.498Z,86.94
2018-05-25T18:05:50.569Z,88.40
2018-05-25T18:08:18.859Z,85.28
2018-05-25T18:10:47.881Z,87.17
2018-05-25T18:13:16.266Z,85.41
2018-05-25T18:15:44.549Z,85.54
2018-05-25T18:18:12.799Z,87.38
2018-05-25T18:20:41.836Z,90.14
2018-05-25T18:23:10.865Z,91.13
2018-05-25T18:25:39.935Z,92.14
2018-05-25T18:28:08.204Z,92.52
2018-05-25T18:30:36.499Z,92.28
2018-05-25T18:33:04.758Z,92.65
2018-05-25T18:35:33.043Z,92.95
2018-05-25T18:38:01.289Z,93.07
2018-05-25T18:40:29.550Z,92.66
2018-05-25T18:42:57.864Z,92.51
2018-05-25T18:45:26.145Z,93.30
2018-05-25T18:47:54.554Z,93.54
2018-05-25T18:50:22.883Z,93.19
2018-05-25T18:52:51.187Z,93.65
2018-05-25T18:55:19.490Z,92.90
2018-05-25T18:57:48.599Z,93.99
2018-05-25T19:00:16.903Z,92.84
2018-05-25T19:02:45.203Z,92.83
2018-05-25T19:05:13.600Z,93.92
2018-05-25T19:07:42.017Z,94.05
2018-05-25T19:10:10.322Z,94.20
2018-05-25T19:12:38.589Z,94.47
2018-05-25T19:15:06.931Z,94.52
2018-05-25T19:17:36.016Z,94.36
2018-05-25T19:20:05.085Z,94.70
2018-05-25T19:22:33.346Z,94.77
2018-05-25T19:25:01.614Z,94.82
2018-05-25T19:27:30.040Z,94.52
2018-05-25T19:29:58.362Z,94.59
2018-05-25T19:32:26.844Z,93.68
2018-05-25T19:34:55.148Z,93.22
2018-05-25T19:37:23.564Z,92.98
2018-05-25T19:39:52.844Z,92.84
2018-05-25T19:42:22.547Z,92.89
2018-05-25T19:44:50.989Z,93.44
2018-05-25T19:47:20.159Z,93.73
2018-05-25T19:49:48.884Z,94.04
2018-05-25T19:52:17.824Z,94.33
2018-05-25T19:54:46.911Z,94.40
2018-05-25T19:57:15.980Z,94.45
2018-05-25T19:59:44.949Z,94.76
2018-05-25T20:02:14.197Z,94.98
2018-05-25T20:04:44.165Z,94.90
2018-05-25T20:07:14.268Z,95.07
2018-05-25T20:09:43.363Z,95.50
2018-05-25T20:12:12.641Z,95.83
2018-05-25T20:14:42.031Z,96.04
2018-05-25T20:17:11.390Z,95.80
2018-05-25T20:19:40.588Z,95.80
2018-05-25T20:22:10.015Z,95.98
2018-05-25T20:24:39.321Z,95.61
2018-05-25T20:27:08.453Z,95.77
2018-05-25T20:29:37.874Z,95.57
2018-05-25T20:32:07.868Z,94.94
2018-05-25T20:34:37.226Z,95.02
2018-05-25T20:37:06.537Z,94.99
2018-05-25T20:39:35.939Z,95.49
2018-05-25T20:42:05.356Z,95.28
2018-05-25T20:44:34.578Z,95.54
2018-05-25T20:47:04.025Z,95.20
2018-05-25T20:49:33.191Z,94.83
2018-05-25T20:52:02.076Z,94.88
2018-05-25T20:54:31.339Z,95.26
2018-05-25T20:57:00.098Z,95.26
2018-05-25T20:59:29.858Z,95.40
2018-05-25T21:01:58.604Z,95.50
2018-05-25T21:04:27.981Z,95.36
2018-05-25T21:06:56.468Z,95.64
2018-05-25T21:09:25.055Z,95.88
2018-05-25T21:11:53.804Z,96.43
2018-05-25T21:14:23.209Z,96.43
2018-05-25T21:16:51.522Z,96.10
2018-05-25T21:19:19.818Z,97.09
2018-05-25T21:21:48.074Z,96.66
2018-05-25T21:24:16.421Z,96.44
2018-05-25T21:26:45.458Z,96.07
2018-05-25T21:29:13.730Z,95.93
2018-05-25T21:31:42.018Z,95.71
2018-05-25T21:34:11.081Z,95.38
2018-05-25T21:36:39.500Z,95.41
2018-05-25T21:39:08.023Z,95.31
2018-05-25T21:41:37.088Z,96.14
2018-05-25T21:44:05.358Z,95.90
2018-05-25T21:46:33.638Z,95.75
2018-05-25T21:49:01.962Z,95.51
2018-05-25T21:51:30.224Z,95.11
2018-05-25T21:53:59.250Z,95.21
2018-05-25T21:56:27.516Z,95.19
2018-05-25T21:58:55.763Z,95.02
2018-05-25T22:01:24.805Z,96.11
2018-05-25T22:03:53.107Z,95.82
2018-05-25T22:06:21.368Z,95.28
2018-05-25T22:08:50.545Z,94.72
2018-05-25T22:11:18.805Z,94.01
2018-05-25T22:13:47.059Z,94.10
2018-05-25T22:16:16.129Z,94.11
2018-05-25T22:18:45.183Z,94.64
2018-05-25T22:21:14.319Z,94.71
2018-05-25T22:23:42.617Z,94.49
2018-05-25T22:26:11.705Z,94.20
2018-05-25T22:28:40.087Z,95.00
2018-05-25T22:31:08.384Z,95.27
2018-05-25T22:33:37.427Z,95.25
2018-05-25T22:36:05.721Z,95.02
2018-05-25T22:38:34.009Z,95.55
2018-05-25T22:41:02.270Z,95.64
2018-05-25T22:43:48.315Z,96.42
2018-05-25T22:46:34.395Z,96.64
2018-05-25T22:49:21.463Z,96.34
2018-05-25T22:52:07.503Z,96.49
2018-05-25T22:54:42.319Z,96.72
2018-05-25T22:57:11.380Z,96.33
2018-05-25T22:59:39.660Z,96.62
2018-05-25T23:02:07.926Z,96.22
2018-05-25T23:04:36.181Z,96.58
2018-05-25T23:07:04.515Z,96.95
2018-05-25T23:09:32.788Z,97.15
2018-05-25T23:12:01.036Z,96.84
2018-05-25T23:14:29.297Z,96.75
2018-05-25T23:16:57.564Z,97.42
2018-05-25T23:19:25.816Z,97.37
2018-05-25T23:21:54.065Z,97.10
2018-05-25T23:24:22.349Z,97.09
2018-05-25T23:26:51.428Z,97.19
2018-05-25T23:29:19.737Z,97.14
2018-05-25T23:31:48.784Z,96.72
2018-05-25T23:34:17.044Z,96.95
2018-05-25T23:36:45.298Z,96.83
2018-05-25T23:39:13.601Z,96.70
2018-05-25T23:41:41.927Z,96.28
2018-05-25T23:44:10.997Z,96.38
2018-05-25T23:46:39.255Z,96.31
2018-05-25T23:49:07.572Z,95.75
2018-05-25T23:51:35.857Z,95.20
2018-05-25T23:54:04.871Z,94.89
2018-05-25T23:56:33.141Z,95.01
2018-05-25T23:59:01.418Z,95.24
